Time;durP1;ratioP1;P1;durP2;ratioP2;P2;SDS_P1;SDS_P2;PMS_P1;PMS_P2;Temp;Humidity;BMP_temperature;BMP_pressure;BME280_temperature;BME280_humidity;BME280_pressure;Samples;Min_cycle;Max_cycle;Signal;HPM_P1;HPM_P2
2024/01/31 00:00:06;;;;;;;20.88;10.98;;;;;;;5.70;82.89;102371.03;5015355;28;20108;-70
2024/01/31 00:02:33;;;;;;;21.90;11.30;;;;;;;5.75;82.74;102371.72;5014968;28;20100;-70
2024/01/31 00:04:59;;;;;;;22.30;11.10;;;;;;;5.81;82.37;102376.84;5014511;28;20046;-70
2024/01/31 00:07:26;;;;;;;23.85;10.88;;;;;;;5.85;82.65;102375.78;5016155;28;20137;-70
2024/01/31 00:09:53;;;;;;;19.77;10.55;;;;;;;5.89;82.14;102370.25;5016169;28;20458;-69
2024/01/31 00:12:19;;;;;;;21.60;11.30;;;;;;;5.96;81.90;102377.13;5016191;28;20057;-67
2024/01/31 00:14:46;;;;;;;21.98;11.57;;;;;;;6.01;81.51;102375.13;5016095;28;20042;-70
2024/01/31 00:17:12;;;;;;;16.48;9.50;;;;;;;6.17;80.73;102373.53;5015900;28;20050;-70
2024/01/31 00:19:39;;;;;;;20.73;9.98;;;;;;;6.24;80.23;102374.13;5016307;28;20099;-69
2024/01/31 00:22:06;;;;;;;19.52;10.27;;;;;;;6.27;79.88;102369.50;5016072;28;20053;-69
2024/01/31 00:24:32;;;;;;;16.73;9.43;;;;;;;6.36;79.31;102363.72;5015708;28;20050;-69
2024/01/31 00:26:59;;;;;;;22.35;9.65;;;;;;;6.53;78.64;102372.84;5015494;28;20033;-68
2024/01/31 00:29:25;;;;;;;19.33;9.18;;;;;;;6.51;78.39;102369.34;5015213;28;20176;-68
2024/01/31 00:31:52;;;;;;;14.50;8.50;;;;;;;6.55;78.29;102373.66;5017598;28;20046;-69
2024/01/31 00:34:18;;;;;;;17.73;9.30;;;;;;;6.47;78.20;102370.44;5018459;28;20069;-68
2024/01/31 00:36:45;;;;;;;15.30;8.60;;;;;;;6.60;77.94;102371.63;5019263;28;20550;-69
2024/01/31 00:39:12;;;;;;;16.17;8.05;;;;;;;6.59;77.63;102377.97;5020324;28;20049;-69
2024/01/31 00:41:38;;;;;;;16.05;8.32;;;;;;;6.64;77.97;102374.13;5021045;28;20050;-69
2024/01/31 00:44:06;;;;;;;20.55;9.30;;;;;;;6.56;77.80;102375.41;5019523;28;20381;-78
2024/01/31 00:46:32;;;;;;;15.65;9.25;;;;;;;6.53;77.68;102372.84;5019202;28;20053;-72
2024/01/31 00:49:00;;;;;;;16.58;8.93;;;;;;;6.58;77.62;102373.53;5037963;28;20051;-69
2024/01/31 00:51:27;;;;;;;16.95;8.32;;;;;;;6.77;76.55;102371.72;5039401;28;20045;-68
2024/01/31 00:53:53;;;;;;;15.43;8.38;;;;;;;6.96;75.18;102375.31;5021739;28;20088;-69
2024/01/31 00:56:20;;;;;;;16.88;8.13;;;;;;;6.88;75.47;102374.81;5021342;28;20053;-68
2024/01/31 00:58:46;;;;;;;12.32;7.82;;;;;;;6.85;75.78;102371.38;5037853;28;20041;-68
2024/01/31 01:01:13;;;;;;;15.32;7.80;;;;;;;6.84;75.71;102366.94;5036498;28;20068;-68
2024/01/31 01:03:40;;;;;;;16.77;7.65;;;;;;;6.83;75.63;102368.75;5036239;28;20077;-68
2024/01/31 01:06:06;;;;;;;14.88;7.07;;;;;;;6.94;74.97;102371.84;5034601;28;20131;-70
2024/01/31 01:08:34;;;;;;;15.50;7.78;;;;;;;6.87;75.08;102364.97;5034312;28;20136;-70
2024/01/31 01:11:00;;;;;;;14.50;7.28;;;;;;;6.89;74.73;102373.84;5034410;28;20041;-68
2024/01/31 01:13:27;;;;;;;16.10;7.18;;;;;;;6.98;74.13;102364.47;5035205;28;20049;-68
2024/01/31 01:15:54;;;;;;;12.27;7.10;;;;;;;6.95;74.15;102368.19;5036802;28;20045;-68
2024/01/31 01:18:21;;;;;;;11.38;6.18;;;;;;;7.12;73.08;102359.31;5036439;28;20447;-70
2024/01/31 01:20:48;;;;;;;15.27;6.93;;;;;;;6.99;73.56;102353.59;5037428;28;20044;-71
2024/01/31 01:23:15;;;;;;;11.65;6.20;;;;;;;7.12;72.92;102363.81;5037922;28;20136;-69
2024/01/31 01:25:42;;;;;;;11.90;5.88;;;;;;;7.11;72.63;102367.47;5036110;28;20042;-68
2024/01/31 01:28:09;;;;;;;10.85;5.28;;;;;;;7.08;72.88;102362.19;5036332;28;20124;-69
2024/01/31 01:30:35;;;;;;;12.00;6.22;;;;;;;7.05;72.77;102365.06;5035467;28;20045;-70
2024/01/31 01:33:02;;;;;;;8.57;5.03;;;;;;;7.07;72.47;102366.72;5035562;28;20512;-71
2024/01/31 01:35:29;;;;;;;10.32;4.78;;;;;;;7.12;71.89;102358.44;5035656;28;20077;-69
2024/01/31 01:37:55;;;;;;;11.73;4.68;;;;;;;7.19;71.67;102365.25;5035980;28;20512;-68
2024/01/31 01:40:23;;;;;;;11.40;4.65;;;;;;;7.23;71.22;102361.47;5036201;28;20041;-68
2024/01/31 01:42:49;;;;;;;8.00;4.38;;;;;;;7.21;71.07;102366.09;5035534;28;20080;-68
2024/01/31 01:45:16;;;;;;;8.90;4.10;;;;;;;7.29;70.58;102356.69;5037056;28;20108;-68
2024/01/31 01:47:50;;;;;;;9.98;4.80;;;;;;;7.21;70.89;102350.78;5036979;28;20492;-69
2024/01/31 01:50:18;;;;;;;7.15;3.50;;;;;;;7.19;70.47;102352.66;5033833;28;20053;-68
2024/01/31 01:52:45;;;;;;;8.95;3.72;;;;;;;7.21;70.36;102350.78;5035162;28;20120;-68
2024/01/31 01:55:12;;;;;;;9.77;3.72;;;;;;;7.27;69.98;102352.28;5034940;28;20053;-69
2024/01/31 01:57:39;;;;;;;7.80;3.40;;;;;;;7.32;69.87;102361.03;5035118;28;20049;-69
2024/01/31 02:00:10;;;;;;;7.28;3.22;;;;;;;7.33;69.61;102360.09;5035739;28;20394;-68
2024/01/31 02:02:37;;;;;;;5.25;2.85;;;;;;;7.40;69.70;102369.69;5030588;28;20053;-69
2024/01/31 02:08:51;;;;;;;8.32;3.72;;;;;;;7.44;71.11;102371.28;5033864;28;20168;-69
2024/01/31 02:11:17;;;;;;;6.47;4.22;;;;;;;7.38;71.92;102377.00;5033627;28;20485;-68
2024/01/31 02:13:44;;;;;;;8.77;4.68;;;;;;;7.39;72.33;102380.56;5034874;28;20054;-70
2024/01/31 02:16:12;;;;;;;9.00;3.85;;;;;;;7.43;72.59;102384.84;5033401;28;20045;-70
2024/01/31 02:18:39;;;;;;;7.07;4.38;;;;;;;7.35;73.19;102385.22;5033273;28;20038;-71
2024/01/31 02:21:06;;;;;;;10.43;4.22;;;;;;;7.21;73.77;102374.19;5033147;28;20092;-69
2024/01/31 02:23:32;;;;;;;9.13;4.07;;;;;;;7.27;73.27;102369.34;5033500;28;20471;-69
2024/01/31 02:26:00;;;;;;;5.88;3.25;;;;;;;7.33;72.86;102388.91;5032777;28;20497;-67
2024/01/31 02:28:26;;;;;;;5.97;3.47;;;;;;;7.27;72.87;102382.84;5035401;28;20045;-68
2024/01/31 02:30:53;;;;;;;5.47;3.88;;;;;;;7.25;73.26;102375.78;5036233;28;20064;-69
2024/01/31 02:33:20;;;;;;;5.57;3.60;;;;;;;7.32;72.76;102377.25;5035709;28;20045;-69
2024/01/31 02:35:47;;;;;;;6.07;3.67;;;;;;;7.27;72.68;102365.78;5034797;28;20056;-69
2024/01/31 02:38:13;;;;;;;7.35;3.40;;;;;;;7.15;73.22;102379.84;5034784;28;20053;-69
2024/01/31 02:40:40;;;;;;;7.20;3.42;;;;;;;7.28;72.30;102370.22;5036186;28;20088;-68
2024/01/31 02:43:07;;;;;;;4.13;3.03;;;;;;;7.14;72.50;102375.41;5036809;28;20040;-69
2024/01/31 02:45:35;;;;;;;7.22;2.97;;;;;;;7.19;72.29;102379.66;5033943;28;20552;-69
2024/01/31 02:48:02;;;;;;;5.68;3.10;;;;;;;7.16;72.45;102371.69;5035188;28;20149;-69
2024/01/31 02:50:31;;;;;;;5.88;2.55;;;;;;;7.14;72.51;102372.72;5034769;28;20480;-79
2024/01/31 02:52:59;;;;;;;6.38;3.15;;;;;;;7.25;71.80;102381.16;5034327;28;20095;-70
2024/01/31 02:55:26;;;;;;;4.72;2.80;;;;;;;7.22;71.62;102378.63;5034911;28;20053;-68
2024/01/31 02:57:52;;;;;;;2.97;2.10;;;;;;;7.18;72.12;102375.19;5035359;28;20046;-68
2024/01/31 03:00:19;;;;;;;4.28;2.20;;;;;;;7.21;71.58;102379.59;5034939;28;20046;-68
2024/01/31 03:02:45;;;;;;;3.33;2.13;;;;;;;7.17;71.68;102380.66;5034533;28;20037;-69
2024/01/31 03:05:12;;;;;;;5.32;2.78;;;;;;;7.11;72.09;102380.97;5033057;28;20414;-68
2024/01/31 03:07:40;;;;;;;7.13;2.20;;;;;;;7.17;71.59;102380.66;5033363;28;20389;-70
2024/01/31 03:10:09;;;;;;;4.05;2.15;;;;;;;7.16;72.04;102392.41;5032585;28;20404;-68
2024/01/31 03:12:36;;;;;;;1.85;1.48;;;;;;;7.15;72.27;102387.97;5033624;28;20436;-68
2024/01/31 03:15:05;;;;;;;3.40;1.95;;;;;;;7.18;72.31;102382.41;5033085;28;20045;-69
2024/01/31 03:17:35;;;;;;;3.15;1.88;;;;;;;7.18;72.20;102391.38;5034378;28;20046;-70
2024/01/31 03:20:03;;;;;;;4.75;1.90;;;;;;;7.15;72.63;102391.53;5034216;28;20053;-73
2024/01/31 03:22:30;;;;;;;3.63;1.90;;;;;;;7.08;72.85;102398.16;5032090;28;20042;-69
2024/01/31 03:24:57;;;;;;;4.68;1.90;;;;;;;7.10;73.08;102398.09;5033450;28;20049;-68
2024/01/31 03:27:23;;;;;;;3.60;1.60;;;;;;;7.08;73.18;102408.06;5035956;28;20124;-70
2024/01/31 03:29:50;;;;;;;2.00;1.40;;;;;;;7.01;73.86;102410.19;5035648;28;20099;-72
2024/01/31 03:32:16;;;;;;;2.83;1.50;;;;;;;7.03;73.57;102419.09;5035401;28;20099;-68
2024/01/31 03:34:43;;;;;;;2.95;1.40;;;;;;;7.06;73.66;102420.75;5035888;28;20060;-69
2024/01/31 03:37:09;;;;;;;3.83;1.13;;;;;;;7.03;74.01;102423.63;5032116;28;20050;-69
2024/01/31 03:39:38;;;;;;;5.03;0.90;;;;;;;6.87;74.84;102424.31;5032092;28;20068;-69
2024/01/31 03:42:05;;;;;;;1.60;0.90;;;;;;;6.90;74.91;102437.66;5032307;28;20064;-68
2024/01/31 03:44:32;;;;;;;1.02;0.80;;;;;;;6.76;75.82;102434.72;5032675;28;20046;-69
2024/01/31 03:46:58;;;;;;;1.08;0.95;;;;;;;6.91;75.74;102434.03;5034057;28;20045;-68
2024/01/31 03:49:25;;;;;;;3.47;1.08;;;;;;;6.80;76.03;102433.63;5033370;28;20096;-69
2024/01/31 03:51:51;;;;;;;1.23;0.82;;;;;;;6.86;76.41;102427.94;5033832;28;20045;-69
2024/01/31 03:54:18;;;;;;;3.95;0.98;;;;;;;6.85;76.83;102426.22;5033679;28;20041;-70
2024/01/31 03:56:45;;;;;;;3.80;1.25;;;;;;;6.69;77.45;102431.41;5032471;28;20471;-69
2024/01/31 03:59:11;;;;;;;4.07;1.15;;;;;;;6.75;77.47;102435.66;5032725;28;20119;-69
2024/01/31 04:01:38;;;;;;;2.22;1.23;;;;;;;6.68;77.78;102442.25;5033641;28;20042;-69
2024/01/31 04:04:05;;;;;;;2.13;1.27;;;;;;;6.73;77.58;102448.34;5032763;28;20077;-68
2024/01/31 04:06:32;;;;;;;2.85;1.15;;;;;;;6.54;78.14;102445.59;5032854;28;20075;-71
2024/01/31 04:08:59;;;;;;;3.63;1.08;;;;;;;6.64;77.96;102443.34;5037176;28;20049;-71
2024/01/31 04:11:25;;;;;;;2.78;1.30;;;;;;;6.50;78.49;102456.56;5018605;28;20042;-72
2024/01/31 04:13:52;;;;;;;1.25;0.95;;;;;;;6.47;78.48;102454.88;5021127;28;20046;-69
2024/01/31 04:16:20;;;;;;;1.63;1.27;;;;;;;6.65;77.42;102455.91;5036338;28;20045;-69
2024/01/31 04:18:47;;;;;;;3.50;1.40;;;;;;;6.58;77.50;102459.78;5040656;28;20069;-67
2024/01/31 04:21:22;;;;;;;1.58;0.80;;;;;;;6.61;77.30;102454.25;5038174;28;20105;-74
2024/01/31 04:23:49;;;;;;;2.45;0.82;;;;;;;6.56;77.00;102450.91;5036613;28;20550;-70
2024/01/31 04:26:15;;;;;;;2.08;1.00;;;;;;;6.60;77.36;102457.91;5036921;28;20049;-69
2024/01/31 04:28:42;;;;;;;3.08;1.10;;;;;;;6.60;76.95;102455.19;5038791;28;20049;-71
2024/01/31 04:31:15;;;;;;;1.65;1.02;;;;;;;6.61;76.86;102456.94;5037630;28;20083;-70
2024/01/31 04:33:43;;;;;;;0.95;0.77;;;;;;;6.52;77.05;102458.22;5038241;28;20084;-70
2024/01/31 04:36:10;;;;;;;2.45;1.08;;;;;;;6.59;76.39;102456.16;5038494;28;20055;-74
2024/01/31 04:38:36;;;;;;;3.22;1.02;;;;;;;6.54;76.61;102464.47;5039916;28;20051;-70
2024/01/31 04:41:03;;;;;;;2.13;0.80;;;;;;;6.52;76.68;102468.13;5039107;28;20064;-69
2024/01/31 04:43:30;;;;;;;5.03;1.10;;;;;;;6.43;77.11;102472.97;5037525;28;20461;-70
2024/01/31 04:45:57;;;;;;;1.48;0.75;;;;;;;6.37;77.66;102467.88;5036400;28;20057;-70
2024/01/31 04:48:23;;;;;;;1.80;0.68;;;;;;;6.47;77.38;102467.47;5037427;28;20117;-71
2024/01/31 04:50:50;;;;;;;3.85;0.73;;;;;;;6.46;77.21;102476.50;5031591;28;20049;-70
2024/01/31 04:53:17;;;;;;;1.98;0.50;;;;;;;6.45;76.91;102472.06;5035611;28;20049;-70
2024/01/31 04:55:44;;;;;;;1.00;0.60;;;;;;;6.49;76.58;102476.38;5035947;28;20092;-70
2024/01/31 04:58:13;;;;;;;2.78;0.93;;;;;;;6.37;76.91;102478.66;5037416;28;20131;-70
2024/01/31 05:00:41;;;;;;;1.75;0.57;;;;;;;6.35;76.73;102487.72;5035739;28;20052;-70
2024/01/31 05:03:07;;;;;;;2.60;0.60;;;;;;;6.37;76.16;102477.78;5034794;28;20057;-70
2024/01/31 05:05:34;;;;;;;1.58;0.60;;;;;;;6.18;76.99;102472.28;5035403;28;20354;-70
2024/01/31 05:08:01;;;;;;;1.25;0.60;;;;;;;6.24;76.83;102476.53;5035506;28;20060;-70
2024/01/31 05:10:28;;;;;;;1.85;0.70;;;;;;;6.26;76.66;102480.94;5035306;28;20456;-70
2024/01/31 05:12:55;;;;;;;1.38;0.60;;;;;;;6.29;76.79;102485.31;5035996;28;20103;-70
2024/01/31 05:15:21;;;;;;;3.30;1.00;;;;;;;6.15;77.40;102489.44;5037215;28;20046;-70
2024/01/31 05:17:48;;;;;;;3.38;1.05;;;;;;;6.24;77.24;102488.16;5035825;28;20049;-70
2024/01/31 05:20:15;;;;;;;0.60;0.50;;;;;;;6.18;77.94;102493.84;5036459;28;20108;-70
2024/01/31 05:22:42;;;;;;;2.88;0.65;;;;;;;6.20;78.13;102493.78;5017889;28;20056;-70
2024/01/31 05:25:10;;;;;;;3.95;0.85;;;;;;;6.17;78.88;102497.47;5036495;28;20045;-70
2024/01/31 05:27:36;;;;;;;1.30;0.70;;;;;;;6.13;79.21;102487.75;5017023;28;20045;-70
2024/01/31 05:30:04;;;;;;;1.13;0.43;;;;;;;5.96;79.96;102495.63;5035410;28;20041;-70
2024/01/31 05:32:31;;;;;;;1.50;0.63;;;;;;;6.06;79.75;102494.31;5035351;28;20417;-71
2024/01/31 05:34:58;;;;;;;1.85;0.80;;;;;;;6.06;79.23;102503.28;5035144;28;20050;-70
2024/01/31 05:37:24;;;;;;;2.47;0.80;;;;;;;6.01;79.35;102512.50;5034589;28;20065;-70
2024/01/31 05:39:51;;;;;;;1.73;0.63;;;;;;;6.01;79.13;102507.13;5036217;28;20398;-70
2024/01/31 05:42:18;;;;;;;1.92;0.60;;;;;;;6.01;78.86;102516.06;5034863;28;20045;-68
2024/01/31 05:44:44;;;;;;;2.20;0.75;;;;;;;5.99;79.42;102525.16;5034973;28;20460;-74
2024/01/31 05:47:11;;;;;;;4.13;0.70;;;;;;;6.00;79.32;102527.78;5028873;28;20049;-70
2024/01/31 05:49:37;;;;;;;1.83;0.70;;;;;;;5.85;80.18;102531.97;5036248;28;20761;-70
2024/01/31 05:52:04;;;;;;;2.45;0.50;;;;;;;5.79;79.90;102529.53;5033879;28;20478;-69
2024/01/31 05:54:31;;;;;;;2.00;0.70;;;;;;;5.73;80.28;102524.38;5035175;28;20049;-69
2024/01/31 05:56:58;;;;;;;1.58;0.70;;;;;;;5.82;80.05;102539.28;5034879;28;20049;-68
2024/01/31 05:59:25;;;;;;;4.30;0.52;;;;;;;5.83;78.98;102531.16;5035887;28;20041;-70
2024/01/31 06:01:52;;;;;;;1.50;0.70;;;;;;;5.67;79.28;102548.84;5036211;28;20412;-70
2024/01/31 06:04:18;;;;;;;1.73;0.60;;;;;;;5.64;79.42;102550.78;5036418;28;20073;-70
2024/01/31 06:06:46;;;;;;;1.83;0.60;;;;;;;5.61;79.77;102557.16;5028134;28;20056;-69
2024/01/31 06:09:13;;;;;;;3.95;0.68;;;;;;;5.56;79.11;102559.13;5036526;28;20125;-70
2024/01/31 06:11:39;;;;;;;1.92;0.50;;;;;;;5.63;78.84;102557.09;5035591;28;20420;-69
2024/01/31 06:14:06;;;;;;;2.65;0.68;;;;;;;5.48;79.30;102566.63;5034956;28;20057;-69
2024/01/31 06:16:33;;;;;;;1.45;0.50;;;;;;;5.53;79.51;102564.66;5036664;28;20042;-68
2024/01/31 06:19:01;;;;;;;1.77;0.60;;;;;;;5.48;78.84;102567.50;5034258;28;20045;-68
2024/01/31 06:21:29;;;;;;;1.65;0.52;;;;;;;5.46;78.39;102569.38;5034323;28;20041;-70
2024/01/31 06:23:55;;;;;;;3.00;0.85;;;;;;;5.39;77.74;102573.22;5034573;28;20049;-73
2024/01/31 06:26:22;;;;;;;1.48;0.30;;;;;;;5.50;77.46;102580.88;5034219;28;20042;-69
2024/01/31 06:28:49;;;;;;;0.52;0.40;;;;;;;5.61;75.86;102578.69;5035323;28;20041;-69
2024/01/31 06:31:24;;;;;;;0.90;0.57;;;;;;;5.48;76.21;102588.16;5035939;28;20103;-69
2024/01/31 06:33:51;;;;;;;1.92;0.70;;;;;;;5.52;75.48;102595.19;5031974;28;20128;-69
2024/01/31 06:36:19;;;;;;;2.55;1.40;;;;;;;5.60;74.02;102595.75;5035184;28;20046;-70
2024/01/31 06:38:46;;;;;;;4.50;0.73;;;;;;;5.57;74.78;102604.84;5018872;28;20100;-70
2024/01/31 06:41:14;;;;;;;0.60;0.35;;;;;;;5.62;74.29;102598.41;5035621;28;20049;-69
2024/01/31 06:43:41;;;;;;;4.03;0.80;;;;;;;5.63;73.66;102597.47;5018155;28;20050;-69
2024/01/31 06:46:08;;;;;;;2.30;0.32;;;;;;;5.53;73.26;102596.94;5036558;28;20103;-69
2024/01/31 06:48:34;;;;;;;1.40;0.50;;;;;;;5.55;72.12;102598.63;5035882;28;20450;-69
2024/01/31 06:51:01;;;;;;;0.50;0.25;;;;;;;5.50;71.73;102602.41;5037033;28;20053;-69
2024/01/31 06:53:29;;;;;;;1.35;0.20;;;;;;;5.53;71.56;102607.72;5019475;28;20489;-70
2024/01/31 06:55:55;;;;;;;1.67;0.55;;;;;;;5.48;71.36;102609.69;5019790;28;20121;-69
2024/01/31 06:58:22;;;;;;;0.80;0.30;;;;;;;5.54;70.19;102614.84;5037353;28;20497;-70
2024/01/31 07:00:49;;;;;;;1.17;0.40;;;;;;;5.44;69.99;102622.38;5034729;28;20129;-69
2024/01/31 07:03:18;;;;;;;0.85;0.30;;;;;;;5.44;70.66;102626.88;5035719;28;20116;-70
2024/01/31 07:05:45;;;;;;;3.08;0.40;;;;;;;5.53;69.46;102627.44;5037014;28;20428;-74
2024/01/31 07:08:11;;;;;;;8.70;0.50;;;;;;;5.52;69.67;102628.38;5036939;28;20483;-70
2024/01/31 07:10:39;;;;;;;1.00;0.38;;;;;;;5.62;69.07;102626.22;5035615;28;20103;-74
2024/01/31 07:13:05;;;;;;;1.70;0.40;;;;;;;5.43;69.17;102630.53;5035124;28;20049;-69
2024/01/31 07:15:32;;;;;;;4.50;0.50;;;;;;;5.57;69.06;102630.88;5034922;28;20041;-69
2024/01/31 07:17:59;;;;;;;1.70;0.30;;;;;;;5.54;69.15;102634.56;5018562;28;20049;-69
2024/01/31 07:20:25;;;;;;;1.52;0.30;;;;;;;5.46;68.99;102633.09;5035004;28;20046;-68
2024/01/31 07:22:53;;;;;;;1.95;0.38;;;;;;;5.55;69.20;102628.25;5034425;28;20087;-69
2024/01/31 07:25:19;;;;;;;0.40;0.30;;;;;;;5.55;68.99;102635.44;5035011;28;20147;-69
2024/01/31 07:27:46;;;;;;;2.88;0.40;;;;;;;5.43;69.21;102635.91;5036351;28;20065;-69
2024/01/31 07:30:12;;;;;;;4.07;0.52;;;;;;;5.48;68.65;102644.66;5035109;28;20049;-69
2024/01/31 07:32:40;;;;;;;5.07;0.65;;;;;;;5.49;68.95;102657.19;5035270;28;20045;-69
2024/01/31 07:35:07;;;;;;;0.88;0.30;;;;;;;5.43;68.79;102663.69;5035597;28;20065;-70
2024/01/31 07:37:37;;;;;;;0.90;0.40;;;;;;;5.49;69.42;102665.25;5034645;28;20333;-68
2024/01/31 07:40:05;;;;;;;9.50;4.18;;;;;;;5.47;69.12;102668.00;5034698;28;20071;-69
2024/01/31 07:42:32;;;;;;;2.47;0.88;;;;;;;5.53;69.31;102661.53;5035878;28;20045;-69
2024/01/31 07:44:58;;;;;;;0.45;0.38;;;;;;;5.41;69.87;102665.53;5034135;28;20057;-71
2024/01/31 07:47:25;;;;;;;1.92;0.60;;;;;;;5.42;70.49;102669.09;5033695;28;20045;-71
2024/01/31 07:49:53;;;;;;;0.50;0.40;;;;;;;5.38;70.05;102678.22;5035556;28;20132;-70
2024/01/31 07:52:20;;;;;;;1.02;0.38;;;;;;;5.43;69.84;102681.66;5034495;28;20041;-77
2024/01/31 07:54:47;;;;;;;4.70;0.50;;;;;;;5.31;69.92;102687.44;5031865;28;20049;-81
2024/01/31 07:57:13;;;;;;;5.18;0.45;;;;;;;5.40;70.52;102688.00;5031507;28;20472;-70
2024/01/31 07:59:40;;;;;;;7.57;0.65;;;;;;;5.27;70.60;102684.00;5031768;28;20060;-70
2024/01/31 08:02:07;;;;;;;0.77;0.50;;;;;;;5.42;69.42;102686.16;5032154;28;20045;-70
2024/01/31 08:04:33;;;;;;;3.53;0.40;;;;;;;5.49;69.44;102674.22;5032719;28;20051;-73
2024/01/31 08:07:00;;;;;;;3.15;0.60;;;;;;;5.40;69.84;102676.34;5032676;28;20048;-71
2024/01/31 08:09:26;;;;;;;5.72;0.98;;;;;;;5.53;68.57;102688.47;5032109;28;20042;-70
2024/01/31 08:11:53;;;;;;;3.28;0.88;;;;;;;5.56;68.80;102688.34;5033451;28;20050;-69
2024/01/31 08:14:20;;;;;;;2.65;0.75;;;;;;;5.55;68.13;102689.28;5032533;28;20053;-72
2024/01/31 08:16:49;;;;;;;2.40;0.80;;;;;;;5.50;67.79;102694.81;5031334;28;20493;-73
2024/01/31 08:19:16;;;;;;;1.52;0.70;;;;;;;5.37;68.53;102698.00;5032772;28;20486;-71
2024/01/31 08:21:43;;;;;;;2.47;1.08;;;;;;;5.34;69.02;102690.03;5032006;28;20056;-72
2024/01/31 08:24:09;;;;;;;4.00;0.70;;;;;;;5.45;68.77;102696.81;5031233;28;20053;-71
2024/01/31 08:26:36;;;;;;;2.72;0.68;;;;;;;5.49;69.18;102694.88;5031234;28;20175;-71
2024/01/31 08:29:03;;;;;;;5.70;0.60;;;;;;;5.42;68.45;102701.41;5032525;28;20100;-73
2024/01/31 08:31:45;;;;;;;2.10;0.93;;;;;;;5.58;68.88;102703.50;5032438;28;20107;-71
2024/01/31 08:34:12;;;;;;;1.63;0.55;;;;;;;5.70;68.00;102706.69;5031723;28;20057;-71
2024/01/31 08:36:39;;;;;;;4.80;0.55;;;;;;;5.64;68.75;102707.81;5030541;28;20140;-71
2024/01/31 08:39:09;;;;;;;2.67;0.52;;;;;;;5.69;69.37;102713.00;5032456;28;20080;-71
2024/01/31 08:41:36;;;;;;;1.20;0.80;;;;;;;5.58;70.51;102724.16;5031827;28;20144;-71
2024/01/31 08:44:02;;;;;;;0.93;0.40;;;;;;;5.60;71.29;102722.28;5031424;28;20055;-71
2024/01/31 08:46:29;;;;;;;1.38;0.43;;;;;;;5.43;71.14;102724.72;5014410;28;20041;-73
2024/01/31 08:48:55;;;;;;;1.65;0.50;;;;;;;5.50;71.62;102726.22;5032459;28;20469;-70
2024/01/31 08:51:22;;;;;;;3.28;0.88;;;;;;;5.55;71.45;102729.66;5032608;28;20477;-71
2024/01/31 08:53:49;;;;;;;1.17;0.47;;;;;;;5.69;71.15;102724.66;5036522;28;20103;-72
2024/01/31 08:56:15;;;;;;;4.03;0.60;;;;;;;5.65;70.70;102725.72;5035672;28;20056;-71
2024/01/31 08:58:42;;;;;;;3.55;0.30;;;;;;;5.54;70.61;102733.28;5037036;28;20046;-75
2024/01/31 09:01:09;;;;;;;1.15;0.55;;;;;;;5.61;70.41;102734.84;5036247;28;20045;-71
2024/01/31 09:03:36;;;;;;;3.20;1.10;;;;;;;5.58;70.68;102740.31;5036271;28;20050;-71
2024/01/31 09:06:02;;;;;;;1.55;0.40;;;;;;;5.67;70.24;102740.00;5034444;28;20489;-71
2024/01/31 09:08:29;;;;;;;5.65;0.50;;;;;;;5.84;69.47;102732.19;5035126;28;20049;-70
2024/01/31 09:10:56;;;;;;;2.70;0.57;;;;;;;5.89;69.17;102734.72;5033921;28;20048;-73
2024/01/31 09:13:24;;;;;;;11.00;1.70;;;;;;;5.89;68.64;102734.72;5034738;28;20124;-71
2024/01/31 09:15:51;;;;;;;3.33;0.70;;;;;;;5.90;68.42;102736.50;5014907;28;20042;-69
2024/01/31 09:18:18;;;;;;;1.88;0.55;;;;;;;5.67;69.10;102744.50;5015166;28;20041;-72
2024/01/31 09:20:44;;;;;;;1.50;0.55;;;;;;;5.83;68.62;102735.81;5014595;28;20049;-71
2024/01/31 09:23:11;;;;;;;7.78;0.85;;;;;;;5.75;69.05;102737.03;5015091;28;20482;-70
2024/01/31 09:25:37;;;;;;;2.67;0.77;;;;;;;5.86;68.90;102732.13;5015503;28;20057;-69
2024/01/31 09:28:04;;;;;;;1.63;0.65;;;;;;;5.80;68.98;102730.56;4998227;28;20041;-69
2024/01/31 09:30:31;;;;;;;4.63;1.33;;;;;;;5.84;68.67;102737.56;5014390;28;20096;-70
2024/01/31 09:32:57;;;;;;;3.20;1.25;;;;;;;5.75;69.58;102737.03;5014989;28;20080;-70
2024/01/31 09:35:24;;;;;;;2.35;0.82;;;;;;;6.04;68.36;102727.88;5016242;28;20042;-69
2024/01/31 09:37:50;;;;;;;3.13;0.80;;;;;;;6.23;67.14;102734.34;5014768;28;20042;-72
2024/01/31 09:40:19;;;;;;;1.65;0.75;;;;;;;6.32;67.21;102723.22;5014262;28;20050;-71
2024/01/31 09:42:46;;;;;;;1.65;0.80;;;;;;;6.34;67.07;102732.09;5014479;28;20054;-72
2024/01/31 09:45:14;;;;;;;3.50;0.90;;;;;;;6.47;66.52;102737.03;5012660;28;20428;-72
2024/01/31 09:47:44;;;;;;;1.88;1.08;;;;;;;6.68;66.76;102736.19;5014367;28;20119;-73
2024/01/31 09:50:11;;;;;;;7.63;1.40;;;;;;;7.04;65.08;102738.34;5015383;28;20061;-70
2024/01/31 09:52:40;;;;;;;2.63;0.85;;;;;;;7.37;64.57;102734.25;5014954;28;20053;-72
2024/01/31 09:55:11;;;;;;;5.22;1.20;;;;;;;7.40;63.71;102723.34;5015998;28;20092;-71
2024/01/31 09:57:39;;;;;;;1.20;0.50;;;;;;;7.35;64.22;102728.06;5014453;28;20045;-71
2024/01/31 10:00:07;;;;;;;3.92;0.80;;;;;;;7.08;63.91;102730.06;5014703;28;20292;-70
2024/01/31 10:02:35;;;;;;;2.42;0.82;;;;;;;7.70;62.92;102720.25;5012698;28;20125;-71
2024/01/31 10:05:03;;;;;;;8.02;0.73;;;;;;;8.54;59.09;102714.56;5014493;28;20132;-72
2024/01/31 10:07:30;;;;;;;1.58;0.68;;;;;;;8.81;57.31;102708.75;5014099;28;20046;-72
2024/01/31 10:09:57;;;;;;;2.15;0.90;;;;;;;8.60;58.10;102705.28;5013249;28;20066;-71
2024/01/31 10:12:25;;;;;;;5.68;1.50;;;;;;;8.18;59.05;102698.22;5014671;28;20092;-72
2024/01/31 10:14:53;;;;;;;4.90;1.20;;;;;;;7.85;60.02;102689.88;5013491;28;20129;-71
2024/01/31 10:17:20;;;;;;;3.90;0.88;;;;;;;7.75;60.81;102700.22;5012951;28;20072;-71
2024/01/31 10:19:50;;;;;;;3.22;0.90;;;;;;;7.82;61.55;102701.66;5013623;28;20053;-71
2024/01/31 10:22:19;;;;;;;5.47;1.10;;;;;;;7.78;61.33;102704.59;5013253;28;20140;-70
2024/01/31 10:24:49;;;;;;;3.03;0.85;;;;;;;7.64;62.08;102707.00;5014179;28;20046;-71
2024/01/31 10:27:20;;;;;;;3.97;0.93;;;;;;;7.64;62.49;102707.00;5013111;28;20377;-72
2024/01/31 10:29:47;;;;;;;2.37;0.80;;;;;;;7.73;62.57;102707.47;5013598;28;20053;-71
2024/01/31 10:32:15;;;;;;;3.08;0.77;;;;;;;7.59;62.81;102719.84;5015624;28;20054;-71
2024/01/31 10:34:45;;;;;;;5.00;0.80;;;;;;;7.42;63.15;102721.47;5015777;28;20128;-71
2024/01/31 10:37:33;;;;;;;2.60;1.10;;;;;;;7.23;64.28;102709.66;5014043;28;20048;-71
2024/01/31 10:40:06;;;;;;;3.15;1.10;;;;;;;7.06;64.42;102714.88;5015487;28;20436;-71
2024/01/31 10:42:34;;;;;;;3.05;1.52;;;;;;;7.03;64.92;102718.59;5015206;28;20049;-71
2024/01/31 10:45:02;;;;;;;6.63;1.00;;;;;;;7.05;64.94;102724.78;5015210;28;20053;-71
2024/01/31 10:47:29;;;;;;;5.97;1.30;;;;;;;6.92;65.21;102724.44;5015078;28;20054;-70
2024/01/31 10:49:55;;;;;;;8.15;1.60;;;;;;;6.75;65.77;102726.94;5015077;28;20053;-71
2024/01/31 10:52:27;;;;;;;3.53;1.13;;;;;;;6.66;66.25;102712.00;5014575;28;20045;-70
2024/01/31 10:54:59;;;;;;;4.53;1.10;;;;;;;6.65;66.06;102720.16;5014955;28;20120;-72
2024/01/31 10:57:27;;;;;;;9.88;1.13;;;;;;;6.71;66.06;102733.38;5035108;28;20051;-70
2024/01/31 10:59:57;;;;;;;5.88;1.38;;;;;;;6.82;65.25;102741.06;5034869;28;20060;-71
2024/01/31 11:02:29;;;;;;;3.10;0.75;;;;;;;6.56;65.30;102726.78;5032231;28;20050;-71
2024/01/31 11:05:00;;;;;;;6.38;1.48;;;;;;;6.48;65.38;102730.72;5031572;28;20045;-70
2024/01/31 11:07:28;;;;;;;4.95;1.17;;;;;;;6.47;65.45;102710.09;5032157;28;20103;-72
2024/01/31 11:09:56;;;;;;;8.13;1.55;;;;;;;6.46;65.10;102694.84;5033227;28;20045;-71
2024/01/31 11:12:27;;;;;;;3.97;1.27;;;;;;;6.37;65.00;102696.97;5032545;28;20045;-75
2024/01/31 11:14:55;;;;;;;6.07;1.10;;;;;;;6.42;65.75;102697.66;5014291;28;20050;-71
2024/01/31 11:17:22;;;;;;;6.97;1.33;;;;;;;6.54;65.54;102687.31;5017912;28;20128;-71
2024/01/31 11:19:52;;;;;;;2.45;0.82;;;;;;;6.57;65.47;102681.81;5011999;28;20046;-71
2024/01/31 11:22:20;;;;;;;7.05;1.10;;;;;;;6.63;65.04;102681.56;5011050;28;20056;-71
2024/01/31 11:24:53;;;;;;;4.88;1.38;;;;;;;6.53;64.99;102690.97;5011684;28;20046;-71
2024/01/31 11:27:20;;;;;;;5.68;1.10;;;;;;;6.50;64.99;102693.78;5011572;28;20149;-71
2024/01/31 11:29:51;;;;;;;7.40;0.90;;;;;;;6.41;64.78;102695.91;5011700;28;20054;-70
2024/01/31 11:32:23;;;;;;;6.10;1.45;;;;;;;6.43;64.80;102694.00;5012261;28;20049;-72
2024/01/31 11:35:00;;;;;;;5.85;1.15;;;;;;;6.27;64.15;102692.00;5011717;28;20394;-70